Epsom, New Hampshire
Current Conditions -  °F | °C
As of 7:51 AM on Thursday 27 Nov 2014 (Local Time) from KCON Reporting Station
NA  
Wind Chill: 22°   Ceiling: NA
Heat Index: 30°   Visibility: 10mi
Dew Point: 26°   Wind: 8mph
Humidity: 85%   Direction: 300°WNW
Pressure: 29.88"   Gusts: NA
Location:  43.22°N, 71.33°W
Report Text: KCON 271251Z AUTO 30007KT 10SM M01/M03 A2988 RMK AO2 SLP122 T10111033 $
Loading
Personal Weather Stations






























Interactive Weather Map New forecast layout! Learn more

10-Day Weather Forecast

Advertisements
Track Severe Weather on mobile